createdAt,value
2023-03-26T00:01:36.961Z,7.30
2023-03-26T00:04:07.008Z,7.20
2023-03-26T00:06:40.077Z,7.20
2023-03-26T00:09:10.257Z,7.20
2023-03-26T00:21:31.456Z,7.20
2023-03-26T00:24:08.721Z,7.10
2023-03-26T00:26:38.599Z,7.00
2023-03-26T00:31:35.164Z,6.90
2023-03-26T00:39:06.353Z,6.90
2023-03-26T00:41:37.420Z,6.90
2023-03-26T00:51:33.434Z,6.90
2023-03-26T01:01:28.527Z,6.70
2023-03-26T01:04:08.387Z,6.70
2023-03-26T01:06:42.334Z,6.80
2023-03-26T01:09:19.196Z,6.80
2023-03-26T01:11:48.983Z,6.80
2023-03-26T01:14:20.167Z,6.80
2023-03-26T01:16:52.578Z,6.90
2023-03-26T01:19:26.169Z,6.80
2023-03-26T01:27:10.001Z,6.90
2023-03-26T01:29:53.742Z,7.00
2023-03-26T01:37:33.889Z,7.00
2023-03-26T01:40:26.551Z,7.00
2023-03-26T01:43:06.688Z,7.00
2023-03-26T01:45:41.408Z,6.90
2023-03-26T01:48:09.623Z,6.90
2023-03-26T01:55:43.733Z,6.80
2023-03-26T01:58:30.466Z,6.80
2023-03-26T02:01:19.860Z,6.80
2023-03-26T02:04:11.561Z,6.80
2023-03-26T02:06:52.879Z,6.80
2023-03-26T02:09:28.832Z,6.80
2023-03-26T02:11:57.489Z,6.80
2023-03-26T02:31:51.350Z,7.20
2023-03-26T03:11:17.737Z,6.80
2023-03-26T03:18:57.791Z,6.90
2023-03-26T03:24:00.080Z,6.70
2023-03-26T03:57:09.965Z,6.80
2023-03-26T04:07:32.873Z,6.90
2023-03-26T04:10:08.819Z,6.90
2023-03-26T04:15:43.119Z,7.00
2023-03-26T04:20:48.273Z,6.80
2023-03-26T04:26:18.827Z,6.90
2023-03-26T04:29:12.968Z,8.30
2023-03-26T04:34:26.496Z,6.90
2023-03-26T04:37:02.779Z,6.80
2023-03-26T04:45:09.308Z,6.80
2023-03-26T04:47:39.184Z,7.80
2023-03-26T04:50:09.432Z,6.80
2023-03-26T04:52:38.816Z,6.80
2023-03-26T04:55:38.510Z,6.90
2023-03-26T05:01:10.166Z,7.20
2023-03-26T05:03:41.506Z,6.70
2023-03-26T05:06:13.740Z,6.90
2023-03-26T05:16:14.782Z,6.80
2023-03-26T05:23:46.413Z,6.80
2023-03-26T05:26:19.577Z,6.90
2023-03-26T05:34:02.295Z,6.90
2023-03-26T05:36:30.185Z,7.30
2023-03-26T05:42:07.951Z,6.40
2023-03-26T05:45:16.477Z,6.80
2023-03-26T05:50:12.550Z,6.80
2023-03-26T05:52:42.602Z,6.80
2023-03-26T05:55:33.486Z,7.00
2023-03-26T06:01:08.743Z,6.90
2023-03-26T06:04:16.175Z,6.90
2023-03-26T06:06:58.763Z,7.40
2023-03-26T06:11:54.064Z,7.10
2023-03-26T06:19:55.557Z,7.40
2023-03-26T06:22:31.814Z,7.70
2023-03-26T06:25:17.353Z,7.20
2023-03-26T06:27:54.006Z,7.00
2023-03-26T06:30:44.540Z,7.50
2023-03-26T06:33:44.886Z,7.40
2023-03-26T06:36:13.995Z,7.40
2023-03-26T06:38:41.992Z,7.20
2023-03-26T06:41:10.410Z,8.30
2023-03-26T06:43:58.916Z,7.20
2023-03-26T06:46:46.903Z,7.60
2023-03-26T06:49:46.946Z,7.20
2023-03-26T06:55:16.887Z,7.20
2023-03-26T06:58:04.539Z,7.20
2023-03-26T07:00:54.478Z,7.50
2023-03-26T07:03:40.772Z,7.20
2023-03-26T07:06:27.309Z,7.00
2023-03-26T07:12:01.729Z,7.40
2023-03-26T07:20:08.544Z,7.60
2023-03-26T07:25:08.508Z,7.50
2023-03-26T07:28:05.596Z,8.20
2023-03-26T07:31:20.680Z,8.40
2023-03-26T07:34:41.120Z,8.90
2023-03-26T07:40:45.577Z,9.90
2023-03-26T07:44:00.428Z,10.60
2023-03-26T07:52:26.856Z,11.70
2023-03-26T08:00:56.762Z,10.10
2023-03-26T08:04:23.696Z,9.80
2023-03-26T08:07:41.699Z,9.60
2023-03-26T08:10:28.388Z,9.70
2023-03-26T08:18:15.208Z,9.60
2023-03-26T08:23:31.762Z,10.30
2023-03-26T08:26:25.502Z,9.60
2023-03-26T08:29:27.834Z,9.30
2023-03-26T08:31:57.674Z,9.90
2023-03-26T08:44:49.856Z,9.40
2023-03-26T08:47:32.762Z,9.30
2023-03-26T08:50:12.075Z,9.10
2023-03-26T08:53:03.079Z,9.00
2023-03-26T08:55:50.699Z,8.80
2023-03-26T08:58:56.224Z,8.70
2023-03-26T09:02:08.895Z,8.80
2023-03-26T09:04:58.623Z,9.40
2023-03-26T09:08:13.835Z,9.80
2023-03-26T09:11:05.944Z,10.00
2023-03-26T09:16:20.066Z,9.70
2023-03-26T09:19:18.217Z,9.60
2023-03-26T09:22:29.643Z,9.40
2023-03-26T09:25:42.180Z,9.50
2023-03-26T09:30:53.370Z,9.80
2023-03-26T09:33:46.994Z,9.70
2023-03-26T09:36:22.074Z,9.30
2023-03-26T09:39:00.942Z,9.10
2023-03-26T09:41:52.771Z,8.90
2023-03-26T09:44:53.675Z,8.80
2023-03-26T09:47:40.459Z,8.80
2023-03-26T09:50:45.425Z,8.90
2023-03-26T09:53:25.641Z,9.20
2023-03-26T09:56:16.794Z,9.50
2023-03-26T10:01:41.503Z,11.50
2023-03-26T10:04:40.580Z,13.00
2023-03-26T10:07:30.381Z,12.80
2023-03-26T10:10:09.151Z,12.30
2023-03-26T10:12:44.261Z,12.00
2023-03-26T10:15:21.329Z,11.40
2023-03-26T10:18:27.691Z,10.70
2023-03-26T10:21:06.451Z,10.90
2023-03-26T10:23:47.388Z,10.80
2023-03-26T10:29:13.081Z,10.50
2023-03-26T10:31:47.144Z,10.50
2023-03-26T10:34:46.697Z,10.30
2023-03-26T10:37:29.854Z,10.00
2023-03-26T10:40:07.596Z,10.30
2023-03-26T10:43:04.788Z,10.70
2023-03-26T10:46:04.926Z,11.80
2023-03-26T10:48:44.641Z,11.90
2023-03-26T10:51:26.818Z,15.10
2023-03-26T10:54:01.135Z,15.20
2023-03-26T10:56:38.658Z,15.90
2023-03-26T10:59:09.016Z,15.60
2023-03-26T11:02:12.582Z,14.30
2023-03-26T11:04:58.807Z,13.70
2023-03-26T11:07:57.319Z,12.40
2023-03-26T11:10:46.319Z,11.40
2023-03-26T11:13:36.260Z,10.50
2023-03-26T11:16:22.840Z,10.10
2023-03-26T11:19:18.322Z,11.40
2023-03-26T11:21:57.859Z,13.10
2023-03-26T11:24:35.315Z,14.80
2023-03-26T11:27:15.244Z,15.70
2023-03-26T11:30:04.532Z,18.00
2023-03-26T11:32:42.967Z,17.30
2023-03-26T11:35:40.383Z,18.10
2023-03-26T11:38:25.173Z,17.80
2023-03-26T11:40:56.275Z,17.40
2023-03-26T11:43:37.030Z,16.50
2023-03-26T11:46:09.316Z,15.90
2023-03-26T11:48:50.048Z,15.10
2023-03-26T11:51:33.356Z,14.30
2023-03-26T11:54:03.324Z,14.30
2023-03-26T11:57:05.568Z,13.90
2023-03-26T11:59:59.656Z,13.00
2023-03-26T12:02:34.443Z,12.50
2023-03-26T12:05:18.894Z,12.60
2023-03-26T12:07:58.187Z,11.90
2023-03-26T12:10:25.786Z,12.30
2023-03-26T12:12:57.038Z,11.70
2023-03-26T12:15:26.288Z,11.80
2023-03-26T12:17:57.322Z,12.60
2023-03-26T12:20:25.215Z,13.80
2023-03-26T12:22:59.644Z,13.90
2023-03-26T12:25:39.181Z,13.90
2023-03-26T12:28:13.655Z,12.50
2023-03-26T12:30:54.393Z,13.00
2023-03-26T12:33:29.557Z,12.30
2023-03-26T12:35:58.517Z,11.10
2023-03-26T12:38:30.431Z,10.40
2023-03-26T12:44:41.857Z,10.00
2023-03-26T12:44:56.401Z,9.70
2023-03-26T12:48:00.659Z,10.00
2023-03-26T12:50:34.210Z,10.00
2023-03-26T12:53:11.229Z,9.40
2023-03-26T12:56:01.009Z,9.60
2023-03-26T12:59:01.747Z,9.70
2023-03-26T13:01:46.175Z,9.90
2023-03-26T13:04:34.423Z,10.20
2023-03-26T13:07:24.908Z,10.30
2023-03-26T13:10:17.347Z,12.20
2023-03-26T13:13:21.816Z,13.40
2023-03-26T13:15:54.236Z,14.10
2023-03-26T13:18:44.248Z,16.40
2023-03-26T13:21:38.649Z,16.70
2023-03-26T13:24:26.337Z,17.40
2023-03-26T13:27:21.443Z,18.40
2023-03-26T13:32:26.877Z,16.50
2023-03-26T13:35:22.005Z,15.50
2023-03-26T13:37:54.355Z,15.50
2023-03-26T13:40:25.978Z,14.70
2023-03-26T13:43:19.838Z,14.50
2023-03-26T13:45:58.570Z,14.10
2023-03-26T13:48:31.027Z,13.80
2023-03-26T13:51:07.913Z,13.60
2023-03-26T13:53:52.751Z,13.10
2023-03-26T13:56:28.418Z,13.00
2023-03-26T13:59:08.719Z,13.30
2023-03-26T14:01:44.233Z,13.20
2023-03-26T14:04:43.992Z,12.30
2023-03-26T14:07:22.973Z,12.50
2023-03-26T14:10:09.053Z,12.20
2023-03-26T14:12:49.703Z,11.80
2023-03-26T14:15:31.834Z,11.70
2023-03-26T14:18:10.503Z,11.50
2023-03-26T14:21:07.515Z,11.40
2023-03-26T14:24:03.099Z,11.20
2023-03-26T14:26:34.212Z,11.10
2023-03-26T14:29:28.615Z,11.40
2023-03-26T14:32:14.118Z,11.60
2023-03-26T14:35:11.973Z,12.40
2023-03-26T14:38:19.100Z,12.20
2023-03-26T14:41:16.618Z,14.50
2023-03-26T14:43:56.409Z,13.40
2023-03-26T14:47:14.631Z,14.20
2023-03-26T14:50:07.703Z,13.20
2023-03-26T14:53:01.369Z,12.90
2023-03-26T14:55:38.954Z,12.70
2023-03-26T15:01:12.270Z,13.00
2023-03-26T15:03:40.107Z,13.20
2023-03-26T15:06:19.869Z,13.10
2023-03-26T15:09:06.894Z,13.40
2023-03-26T15:12:13.011Z,13.20
2023-03-26T15:15:12.560Z,12.60
2023-03-26T15:17:52.033Z,12.50
2023-03-26T15:20:44.123Z,12.50
2023-03-26T15:23:47.366Z,12.30
2023-03-26T15:26:57.234Z,12.30
2023-03-26T15:29:48.612Z,12.00
2023-03-26T15:32:52.873Z,12.00
2023-03-26T15:35:38.569Z,11.90
2023-03-26T15:38:38.720Z,11.40
2023-03-26T15:41:39.839Z,11.30
2023-03-26T15:44:24.082Z,11.00
2023-03-26T15:47:26.356Z,10.60
2023-03-26T15:52:36.535Z,10.20
2023-03-26T15:55:27.831Z,10.30
2023-03-26T15:58:28.262Z,10.30
2023-03-26T16:01:33.988Z,10.40
2023-03-26T16:04:09.362Z,10.50
2023-03-26T16:06:58.885Z,10.60
2023-03-26T16:09:53.997Z,10.50
2023-03-26T16:12:32.795Z,10.70
2023-03-26T16:15:25.261Z,10.70
2023-03-26T16:18:12.202Z,11.50
2023-03-26T16:20:51.066Z,10.40
2023-03-26T16:23:28.698Z,10.50
2023-03-26T16:26:08.355Z,10.30
2023-03-26T16:28:37.135Z,10.40
2023-03-26T16:31:37.490Z,9.90
2023-03-26T16:34:41.107Z,10.00
2023-03-26T16:37:41.121Z,10.80
2023-03-26T16:40:21.188Z,10.20
2023-03-26T16:43:14.520Z,10.30
2023-03-26T16:46:25.388Z,10.30
2023-03-26T16:49:18.613Z,10.30
2023-03-26T16:52:12.995Z,9.80
2023-03-26T16:55:13.208Z,10.00
2023-03-26T16:57:52.733Z,9.60
2023-03-26T17:00:40.402Z,9.60
2023-03-26T17:03:13.991Z,9.50
2023-03-26T17:06:06.729Z,8.90
2023-03-26T17:09:04.833Z,9.20
2023-03-26T17:12:06.871Z,8.80
2023-03-26T17:14:53.980Z,8.80
2023-03-26T17:20:17.820Z,8.50
2023-03-26T17:23:00.256Z,8.50
2023-03-26T17:25:51.920Z,8.40
2023-03-26T17:29:06.766Z,8.10
2023-03-26T17:31:51.363Z,7.90
2023-03-26T17:34:38.569Z,7.70
2023-03-26T17:37:26.811Z,7.60
2023-03-26T17:42:34.590Z,7.30
2023-03-26T17:45:30.904Z,7.30
2023-03-26T17:48:07.318Z,7.20
2023-03-26T17:50:42.206Z,7.30
2023-03-26T17:53:21.101Z,7.30
2023-03-26T17:55:51.358Z,7.10
2023-03-26T17:58:27.291Z,7.00
2023-03-26T18:01:25.808Z,7.00
2023-03-26T18:04:01.255Z,7.00
2023-03-26T18:06:52.781Z,6.90
2023-03-26T18:09:47.199Z,6.50
2023-03-26T18:12:33.949Z,6.70
2023-03-26T18:15:27.154Z,6.50
2023-03-26T18:18:19.068Z,6.40
2023-03-26T18:20:49.567Z,6.20
2023-03-26T18:23:30.330Z,6.10
2023-03-26T18:26:14.173Z,6.00
2023-03-26T18:28:55.195Z,5.90
2023-03-26T18:31:26.845Z,5.20
2023-03-26T18:33:59.428Z,5.80
2023-03-26T18:36:28.481Z,5.50
2023-03-26T18:38:59.900Z,5.40
2023-03-26T18:41:33.232Z,5.10
2023-03-26T18:44:08.958Z,5.10
2023-03-26T18:46:38.092Z,5.10
2023-03-26T18:49:07.242Z,5.00
2023-03-26T18:51:46.391Z,5.00
2023-03-26T18:54:20.457Z,5.00
2023-03-26T18:56:50.517Z,4.60
2023-03-26T18:59:21.440Z,4.70
2023-03-26T19:01:50.056Z,4.40
2023-03-26T19:04:18.786Z,4.70
2023-03-26T19:09:30.952Z,4.60
2023-03-26T19:12:23.294Z,4.40
2023-03-26T19:15:10.220Z,4.40
2023-03-26T19:17:53.509Z,4.60
2023-03-26T19:20:28.387Z,4.40
2023-03-26T19:22:58.458Z,4.20
2023-03-26T19:25:31.029Z,4.50
2023-03-26T19:27:59.617Z,4.70
2023-03-26T19:30:36.255Z,4.30
2023-03-26T19:33:12.391Z,4.30
2023-03-26T19:35:43.459Z,4.30
2023-03-26T19:38:38.918Z,4.30
2023-03-26T19:41:06.526Z,4.20
2023-03-26T19:43:34.585Z,4.20
2023-03-26T19:46:03.342Z,4.20
2023-03-26T19:48:46.690Z,4.30
2023-03-26T19:51:34.090Z,4.90
2023-03-26T19:54:11.852Z,3.90
2023-03-26T19:56:40.913Z,4.40
2023-03-26T19:59:08.902Z,4.30
2023-03-26T20:01:36.742Z,3.90
2023-03-26T20:04:06.968Z,3.60
2023-03-26T20:06:43.346Z,3.90
2023-03-26T20:09:14.409Z,3.50
2023-03-26T20:11:43.406Z,3.80
2023-03-26T20:14:15.714Z,3.50
2023-03-26T20:16:45.662Z,3.40
2023-03-26T20:19:15.457Z,3.40
2023-03-26T20:21:44.579Z,3.10
2023-03-26T20:24:18.176Z,3.30
2023-03-26T20:26:46.975Z,3.20
2023-03-26T20:29:15.525Z,3.30
2023-03-26T20:31:44.650Z,3.20
2023-03-26T20:34:18.989Z,3.10
2023-03-26T20:36:47.152Z,3.10
2023-03-26T20:39:15.009Z,4.00
2023-03-26T20:41:48.490Z,3.00
2023-03-26T20:44:20.004Z,2.90
2023-03-26T20:46:49.058Z,2.90
2023-03-26T20:49:18.463Z,2.80
2023-03-26T20:51:50.220Z,2.80
2023-03-26T20:54:28.179Z,2.70
2023-03-26T20:56:56.062Z,2.70
2023-03-26T20:59:27.155Z,4.40
2023-03-26T21:01:59.548Z,2.60
2023-03-26T21:04:27.988Z,2.80
2023-03-26T21:07:06.652Z,4.90
2023-03-26T21:09:39.526Z,2.40
2023-03-26T21:12:38.356Z,2.10
2023-03-26T21:15:13.349Z,2.30
2023-03-26T21:17:49.718Z,2.30
2023-03-26T21:20:19.252Z,2.90
2023-03-26T21:22:58.512Z,2.00
2023-03-26T21:25:38.655Z,2.10
2023-03-26T21:28:39.759Z,1.90
2023-03-26T21:31:18.666Z,1.90
2023-03-26T21:33:47.903Z,2.30
2023-03-26T21:36:18.236Z,1.90
2023-03-26T21:38:46.303Z,1.80
2023-03-26T21:41:23.904Z,1.90
2023-03-26T21:43:51.771Z,1.70
2023-03-26T21:46:20.305Z,1.80
2023-03-26T21:48:48.275Z,1.80
2023-03-26T21:51:17.858Z,1.70
2023-03-26T21:53:45.975Z,1.70
2023-03-26T21:56:19.492Z,1.60
2023-03-26T21:59:05.188Z,1.70
2023-03-26T22:02:05.938Z,1.60
2023-03-26T22:04:45.165Z,1.60
2023-03-26T22:09:40.955Z,1.50
2023-03-26T22:14:38.746Z,1.60
2023-03-26T22:17:06.269Z,1.60
2023-03-26T22:19:34.797Z,1.60
2023-03-26T22:22:02.730Z,1.60
2023-03-26T22:24:30.227Z,1.50
2023-03-26T22:26:57.957Z,1.50
2023-03-26T22:29:25.418Z,1.40
2023-03-26T22:31:53.050Z,1.40
2023-03-26T22:36:49.126Z,1.40
2023-03-26T22:39:16.339Z,1.30
2023-03-26T22:41:44.368Z,2.70
2023-03-26T22:44:19.596Z,1.50
2023-03-26T22:46:51.741Z,1.10
2023-03-26T22:49:19.239Z,1.10
2023-03-26T22:51:46.931Z,1.00
2023-03-26T22:54:14.650Z,1.00
2023-03-26T22:56:43.684Z,1.00
2023-03-26T22:59:10.903Z,0.90
2023-03-26T23:01:38.630Z,0.90
2023-03-26T23:04:06.164Z,1.00
2023-03-26T23:06:33.831Z,0.90
2023-03-26T23:09:01.423Z,0.80
2023-03-26T23:11:30.665Z,0.80
2023-03-26T23:13:57.863Z,0.80
2023-03-26T23:16:26.627Z,0.60
2023-03-26T23:18:53.816Z,0.50
2023-03-26T23:21:22.508Z,0.60
2023-03-26T23:23:52.219Z,0.60
2023-03-26T23:26:19.929Z,0.50
2023-03-26T23:28:47.951Z,0.50
2023-03-26T23:31:15.501Z,0.50
2023-03-26T23:33:46.787Z,0.60
2023-03-26T23:36:18.342Z,0.50
2023-03-26T23:38:48.251Z,0.40
2023-03-26T23:41:18.164Z,2.10
2023-03-26T23:43:53.314Z,0.30
2023-03-26T23:46:25.836Z,0.40
2023-03-26T23:48:53.442Z,0.30
2023-03-26T23:51:21.686Z,0.30
2023-03-26T23:53:49.777Z,0.20
2023-03-26T23:56:17.870Z,0.30
2023-03-26T23:58:45.295Z,0.20
